sensor_id;sensor_type;location;lat;lon;timestamp;P1;durP1;ratioP1;P2;durP2;ratioP2
71343;SDS011;59146;43.850;25.948;2022-08-19T00:00:04;12.70;;;8.95;;
71343;SDS011;59146;43.850;25.948;2022-08-19T00:02:32;12.43;;;9.55;;
71343;SDS011;59146;43.850;25.948;2022-08-19T00:04:58;10.90;;;9.45;;
71343;SDS011;59146;43.850;25.948;2022-08-19T00:07:23;19.10;;;10.90;;
71343;SDS011;59146;43.850;25.948;2022-08-19T00:09:49;14.38;;;10.07;;
71343;SDS011;59146;43.850;25.948;2022-08-19T00:12:14;12.10;;;10.05;;
71343;SDS011;59146;43.850;25.948;2022-08-19T00:14:40;14.80;;;10.27;;
71343;SDS011;59146;43.850;25.948;2022-08-19T00:17:06;12.90;;;10.00;;
71343;SDS011;59146;43.850;25.948;2022-08-19T00:19:33;20.40;;;10.93;;
71343;SDS011;59146;43.850;25.948;2022-08-19T00:22:00;18.17;;;11.38;;
71343;SDS011;59146;43.850;25.948;2022-08-19T00:24:27;12.13;;;10.75;;
71343;SDS011;59146;43.850;25.948;2022-08-19T00:26:53;19.33;;;11.13;;
71343;SDS011;59146;43.850;25.948;2022-08-19T00:29:20;15.50;;;10.60;;
71343;SDS011;59146;43.850;25.948;2022-08-19T00:31:46;15.27;;;11.05;;
71343;SDS011;59146;43.850;25.948;2022-08-19T00:34:12;15.82;;;10.90;;
71343;SDS011;59146;43.850;25.948;2022-08-19T00:36:39;20.70;;;11.27;;
71343;SDS011;59146;43.850;25.948;2022-08-19T00:39:06;21.52;;;13.10;;
71343;SDS011;59146;43.850;25.948;2022-08-19T00:41:32;16.80;;;12.35;;
71343;SDS011;59146;43.850;25.948;2022-08-19T00:44:03;19.60;;;13.25;;
71343;SDS011;59146;43.850;25.948;2022-08-19T00:46:30;15.30;;;12.00;;
71343;SDS011;59146;43.850;25.948;2022-08-19T00:48:57;21.23;;;12.88;;
71343;SDS011;59146;43.850;25.948;2022-08-19T00:51:25;26.48;;;13.65;;
71343;SDS011;59146;43.850;25.948;2022-08-19T00:53:55;42.88;;;15.18;;
71343;SDS011;59146;43.850;25.948;2022-08-19T00:56:23;22.10;;;12.93;;
71343;SDS011;59146;43.850;25.948;2022-08-19T00:58:51;19.85;;;13.27;;
71343;SDS011;59146;43.850;25.948;2022-08-19T01:01:17;17.70;;;12.43;;
71343;SDS011;59146;43.850;25.948;2022-08-19T01:03:42;20.90;;;13.02;;
71343;SDS011;59146;43.850;25.948;2022-08-19T01:06:08;20.33;;;13.05;;
71343;SDS011;59146;43.850;25.948;2022-08-19T01:08:33;15.57;;;11.52;;
71343;SDS011;59146;43.850;25.948;2022-08-19T01:10:59;20.55;;;12.02;;
71343;SDS011;59146;43.850;25.948;2022-08-19T01:13:29;12.75;;;10.35;;
71343;SDS011;59146;43.850;25.948;2022-08-19T01:15:58;12.07;;;10.27;;
71343;SDS011;59146;43.850;25.948;2022-08-19T01:18:27;23.60;;;11.77;;
71343;SDS011;59146;43.850;25.948;2022-08-19T01:20:58;16.88;;;12.02;;
71343;SDS011;59146;43.850;25.948;2022-08-19T01:23:28;21.02;;;15.10;;
71343;SDS011;59146;43.850;25.948;2022-08-19T01:26:09;24.58;;;15.32;;
71343;SDS011;59146;43.850;25.948;2022-08-19T01:28:36;19.58;;;15.27;;
71343;SDS011;59146;43.850;25.948;2022-08-19T01:31:02;28.80;;;17.38;;
71343;SDS011;59146;43.850;25.948;2022-08-19T01:33:28;20.65;;;16.13;;
71343;SDS011;59146;43.850;25.948;2022-08-19T01:36:03;22.38;;;15.35;;
71343;SDS011;59146;43.850;25.948;2022-08-19T01:38:34;21.35;;;16.25;;
71343;SDS011;59146;43.850;25.948;2022-08-19T01:41:02;19.13;;;14.27;;
71343;SDS011;59146;43.850;25.948;2022-08-19T01:43:28;20.55;;;13.07;;
71343;SDS011;59146;43.850;25.948;2022-08-19T01:45:53;18.52;;;14.20;;
71343;SDS011;59146;43.850;25.948;2022-08-19T01:48:19;21.58;;;14.55;;
71343;SDS011;59146;43.850;25.948;2022-08-19T01:50:44;23.70;;;15.57;;
71343;SDS011;59146;43.850;25.948;2022-08-19T01:53:11;21.55;;;15.48;;
71343;SDS011;59146;43.850;25.948;2022-08-19T01:55:38;24.42;;;16.02;;
71343;SDS011;59146;43.850;25.948;2022-08-19T01:58:05;20.35;;;15.25;;
71343;SDS011;59146;43.850;25.948;2022-08-19T02:00:35;16.70;;;14.35;;
71343;SDS011;59146;43.850;25.948;2022-08-19T02:03:00;19.45;;;15.38;;
71343;SDS011;59146;43.850;25.948;2022-08-19T02:05:26;19.88;;;14.65;;
71343;SDS011;59146;43.850;25.948;2022-08-19T02:07:54;20.65;;;14.90;;
71343;SDS011;59146;43.850;25.948;2022-08-19T02:10:23;21.83;;;16.58;;
71343;SDS011;59146;43.850;25.948;2022-08-19T02:12:49;19.85;;;15.20;;
71343;SDS011;59146;43.850;25.948;2022-08-19T02:15:15;21.35;;;15.00;;
71343;SDS011;59146;43.850;25.948;2022-08-19T02:17:43;20.33;;;15.57;;
71343;SDS011;59146;43.850;25.948;2022-08-19T02:20:09;18.77;;;15.15;;
71343;SDS011;59146;43.850;25.948;2022-08-19T02:22:35;22.13;;;15.60;;
71343;SDS011;59146;43.850;25.948;2022-08-19T02:25:01;26.73;;;16.15;;
71343;SDS011;59146;43.850;25.948;2022-08-19T02:27:27;19.83;;;14.32;;
71343;SDS011;59146;43.850;25.948;2022-08-19T02:29:53;22.30;;;14.77;;
71343;SDS011;59146;43.850;25.948;2022-08-19T02:32:18;18.33;;;14.68;;
71343;SDS011;59146;43.850;25.948;2022-08-19T02:34:45;20.52;;;14.93;;
71343;SDS011;59146;43.850;25.948;2022-08-19T02:37:11;18.50;;;13.45;;
71343;SDS011;59146;43.850;25.948;2022-08-19T02:39:57;15.00;;;13.48;;
71343;SDS011;59146;43.850;25.948;2022-08-19T02:42:23;23.35;;;14.15;;
71343;SDS011;59146;43.850;25.948;2022-08-19T02:44:49;18.90;;;13.88;;
71343;SDS011;59146;43.850;25.948;2022-08-19T02:47:16;20.08;;;14.07;;
71343;SDS011;59146;43.850;25.948;2022-08-19T02:49:43;16.05;;;13.85;;
71343;SDS011;59146;43.850;25.948;2022-08-19T02:52:09;22.65;;;14.55;;
71343;SDS011;59146;43.850;25.948;2022-08-19T02:54:36;24.98;;;14.18;;
71343;SDS011;59146;43.850;25.948;2022-08-19T02:57:02;27.60;;;15.93;;
71343;SDS011;59146;43.850;25.948;2022-08-19T02:59:30;19.85;;;14.23;;
71343;SDS011;59146;43.850;25.948;2022-08-19T03:01:56;19.38;;;13.88;;
71343;SDS011;59146;43.850;25.948;2022-08-19T03:04:21;19.48;;;13.90;;
71343;SDS011;59146;43.850;25.948;2022-08-19T03:06:48;21.45;;;15.63;;
71343;SDS011;59146;43.850;25.948;2022-08-19T03:09:13;17.40;;;14.50;;
71343;SDS011;59146;43.850;25.948;2022-08-19T03:11:40;16.67;;;14.20;;
71343;SDS011;59146;43.850;25.948;2022-08-19T03:14:06;18.40;;;15.52;;
71343;SDS011;59146;43.850;25.948;2022-08-19T03:16:35;16.95;;;13.63;;
71343;SDS011;59146;43.850;25.948;2022-08-19T03:19:09;22.88;;;14.10;;
71343;SDS011;59146;43.850;25.948;2022-08-19T03:21:34;23.42;;;15.10;;
71343;SDS011;59146;43.850;25.948;2022-08-19T03:24:05;27.70;;;15.85;;
71343;SDS011;59146;43.850;25.948;2022-08-19T03:26:33;26.92;;;14.82;;
71343;SDS011;59146;43.850;25.948;2022-08-19T03:29:02;28.92;;;15.52;;
71343;SDS011;59146;43.850;25.948;2022-08-19T03:31:29;24.73;;;15.05;;
71343;SDS011;59146;43.850;25.948;2022-08-19T03:33:56;21.95;;;14.85;;
71343;SDS011;59146;43.850;25.948;2022-08-19T03:36:23;22.88;;;14.43;;
71343;SDS011;59146;43.850;25.948;2022-08-19T03:38:51;20.13;;;14.63;;
71343;SDS011;59146;43.850;25.948;2022-08-19T03:41:20;22.95;;;15.38;;
71343;SDS011;59146;43.850;25.948;2022-08-19T03:43:47;16.52;;;13.77;;
71343;SDS011;59146;43.850;25.948;2022-08-19T03:46:17;22.90;;;14.55;;
71343;SDS011;59146;43.850;25.948;2022-08-19T03:48:48;18.10;;;13.55;;
71343;SDS011;59146;43.850;25.948;2022-08-19T03:51:31;21.08;;;13.25;;
71343;SDS011;59146;43.850;25.948;2022-08-19T03:54:00;25.75;;;12.63;;
71343;SDS011;59146;43.850;25.948;2022-08-19T03:56:27;16.15;;;12.02;;
71343;SDS011;59146;43.850;25.948;2022-08-19T03:58:54;20.83;;;12.38;;
71343;SDS011;59146;43.850;25.948;2022-08-19T04:01:22;17.73;;;12.55;;
71343;SDS011;59146;43.850;25.948;2022-08-19T04:03:51;27.55;;;12.65;;
71343;SDS011;59146;43.850;25.948;2022-08-19T04:06:31;19.67;;;12.52;;
71343;SDS011;59146;43.850;25.948;2022-08-19T04:08:59;19.70;;;12.50;;
71343;SDS011;59146;43.850;25.948;2022-08-19T04:11:29;13.23;;;11.07;;
71343;SDS011;59146;43.850;25.948;2022-08-19T04:13:56;12.75;;;10.63;;
71343;SDS011;59146;43.850;25.948;2022-08-19T04:16:22;21.90;;;11.30;;
71343;SDS011;59146;43.850;25.948;2022-08-19T04:18:49;18.85;;;11.13;;
71343;SDS011;59146;43.850;25.948;2022-08-19T04:21:20;25.17;;;12.05;;
71343;SDS011;59146;43.850;25.948;2022-08-19T04:23:48;20.92;;;11.73;;
71343;SDS011;59146;43.850;25.948;2022-08-19T04:26:17;33.47;;;12.50;;
71343;SDS011;59146;43.850;25.948;2022-08-19T04:28:45;20.13;;;11.65;;
71343;SDS011;59146;43.850;25.948;2022-08-19T04:31:15;29.85;;;12.27;;
71343;SDS011;59146;43.850;25.948;2022-08-19T04:33:42;19.08;;;11.70;;
71343;SDS011;59146;43.850;25.948;2022-08-19T04:36:10;33.67;;;12.60;;
71343;SDS011;59146;43.850;25.948;2022-08-19T04:38:44;15.77;;;10.32;;
71343;SDS011;59146;43.850;25.948;2022-08-19T04:41:09;24.98;;;12.00;;
71343;SDS011;59146;43.850;25.948;2022-08-19T04:43:53;33.08;;;11.48;;
71343;SDS011;59146;43.850;25.948;2022-08-19T04:46:19;28.58;;;13.05;;
71343;SDS011;59146;43.850;25.948;2022-08-19T04:48:45;50.20;;;14.45;;
71343;SDS011;59146;43.850;25.948;2022-08-19T04:51:10;39.85;;;12.57;;
71343;SDS011;59146;43.850;25.948;2022-08-19T04:53:38;26.20;;;11.57;;
71343;SDS011;59146;43.850;25.948;2022-08-19T04:56:09;23.08;;;12.05;;
71343;SDS011;59146;43.850;25.948;2022-08-19T04:58:36;17.95;;;13.10;;
71343;SDS011;59146;43.850;25.948;2022-08-19T05:01:03;39.20;;;13.77;;
71343;SDS011;59146;43.850;25.948;2022-08-19T05:03:29;39.00;;;14.10;;
71343;SDS011;59146;43.850;25.948;2022-08-19T05:06:03;18.23;;;11.25;;
71343;SDS011;59146;43.850;25.948;2022-08-19T05:08:32;30.60;;;12.60;;
71343;SDS011;59146;43.850;25.948;2022-08-19T05:10:59;22.30;;;11.50;;
71343;SDS011;59146;43.850;25.948;2022-08-19T05:13:25;17.25;;;12.80;;
71343;SDS011;59146;43.850;25.948;2022-08-19T05:15:58;21.15;;;13.13;;
71343;SDS011;59146;43.850;25.948;2022-08-19T05:18:24;25.50;;;12.10;;
71343;SDS011;59146;43.850;25.948;2022-08-19T05:21:09;26.33;;;12.38;;
71343;SDS011;59146;43.850;25.948;2022-08-19T05:23:56;17.45;;;12.40;;
71343;SDS011;59146;43.850;25.948;2022-08-19T05:26:22;17.65;;;11.80;;
71343;SDS011;59146;43.850;25.948;2022-08-19T05:28:50;15.82;;;13.45;;
71343;SDS011;59146;43.850;25.948;2022-08-19T05:31:20;20.23;;;13.80;;
71343;SDS011;59146;43.850;25.948;2022-08-19T05:33:46;23.67;;;13.52;;
71343;SDS011;59146;43.850;25.948;2022-08-19T05:36:12;31.88;;;14.88;;
71343;SDS011;59146;43.850;25.948;2022-08-19T05:38:38;27.02;;;16.20;;
71343;SDS011;59146;43.850;25.948;2022-08-19T05:41:10;22.27;;;14.40;;
71343;SDS011;59146;43.850;25.948;2022-08-19T05:43:40;24.38;;;15.90;;
71343;SDS011;59146;43.850;25.948;2022-08-19T05:46:05;29.10;;;15.35;;
71343;SDS011;59146;43.850;25.948;2022-08-19T05:48:32;22.83;;;15.68;;
71343;SDS011;59146;43.850;25.948;2022-08-19T05:51:03;20.67;;;14.75;;
71343;SDS011;59146;43.850;25.948;2022-08-19T05:53:31;23.40;;;14.60;;
71343;SDS011;59146;43.850;25.948;2022-08-19T05:55:56;24.30;;;14.02;;
71343;SDS011;59146;43.850;25.948;2022-08-19T05:58:22;19.48;;;13.95;;
71343;SDS011;59146;43.850;25.948;2022-08-19T06:00:48;25.92;;;15.07;;
71343;SDS011;59146;43.850;25.948;2022-08-19T06:03:14;27.85;;;17.30;;
71343;SDS011;59146;43.850;25.948;2022-08-19T06:05:40;26.77;;;16.23;;
71343;SDS011;59146;43.850;25.948;2022-08-19T06:08:06;37.22;;;17.10;;
71343;SDS011;59146;43.850;25.948;2022-08-19T06:10:32;26.98;;;17.02;;
71343;SDS011;59146;43.850;25.948;2022-08-19T06:12:58;27.10;;;16.48;;
71343;SDS011;59146;43.850;25.948;2022-08-19T06:15:23;29.40;;;15.07;;
71343;SDS011;59146;43.850;25.948;2022-08-19T06:17:50;29.77;;;15.93;;
71343;SDS011;59146;43.850;25.948;2022-08-19T06:20:15;26.70;;;15.73;;
71343;SDS011;59146;43.850;25.948;2022-08-19T06:22:43;23.73;;;14.57;;
71343;SDS011;59146;43.850;25.948;2022-08-19T06:25:11;26.10;;;15.82;;
71343;SDS011;59146;43.850;25.948;2022-08-19T06:27:38;25.15;;;15.35;;
71343;SDS011;59146;43.850;25.948;2022-08-19T06:30:04;27.02;;;15.10;;
71343;SDS011;59146;43.850;25.948;2022-08-19T06:32:30;23.75;;;13.68;;
71343;SDS011;59146;43.850;25.948;2022-08-19T06:34:56;19.00;;;13.63;;
71343;SDS011;59146;43.850;25.948;2022-08-19T06:37:21;17.08;;;13.43;;
71343;SDS011;59146;43.850;25.948;2022-08-19T06:39:47;21.15;;;13.20;;
71343;SDS011;59146;43.850;25.948;2022-08-19T06:42:14;31.35;;;12.32;;
71343;SDS011;59146;43.850;25.948;2022-08-19T06:44:42;17.92;;;13.18;;
71343;SDS011;59146;43.850;25.948;2022-08-19T06:47:13;17.30;;;12.75;;
71343;SDS011;59146;43.850;25.948;2022-08-19T06:49:40;23.58;;;13.35;;
71343;SDS011;59146;43.850;25.948;2022-08-19T06:52:07;21.48;;;12.10;;
71343;SDS011;59146;43.850;25.948;2022-08-19T06:54:33;12.40;;;11.10;;
71343;SDS011;59146;43.850;25.948;2022-08-19T06:56:59;21.63;;;11.00;;
71343;SDS011;59146;43.850;25.948;2022-08-19T06:59:29;20.13;;;11.13;;
71343;SDS011;59146;43.850;25.948;2022-08-19T07:01:57;17.77;;;10.48;;
71343;SDS011;59146;43.850;25.948;2022-08-19T07:04:28;15.10;;;9.70;;
71343;SDS011;59146;43.850;25.948;2022-08-19T07:07:04;20.27;;;11.45;;
71343;SDS011;59146;43.850;25.948;2022-08-19T07:09:35;25.55;;;11.05;;
71343;SDS011;59146;43.850;25.948;2022-08-19T07:12:02;17.77;;;10.02;;
71343;SDS011;59146;43.850;25.948;2022-08-19T07:14:31;19.73;;;10.67;;
71343;SDS011;59146;43.850;25.948;2022-08-19T07:16:57;21.88;;;12.38;;
71343;SDS011;59146;43.850;25.948;2022-08-19T07:19:24;15.27;;;9.85;;
71343;SDS011;59146;43.850;25.948;2022-08-19T07:21:52;16.52;;;10.50;;
71343;SDS011;59146;43.850;25.948;2022-08-19T07:24:18;15.70;;;9.38;;
71343;SDS011;59146;43.850;25.948;2022-08-19T07:26:49;18.83;;;9.60;;
71343;SDS011;59146;43.850;25.948;2022-08-19T07:29:15;21.30;;;10.30;;
71343;SDS011;59146;43.850;25.948;2022-08-19T07:31:42;19.30;;;8.57;;
71343;SDS011;59146;43.850;25.948;2022-08-19T07:34:08;18.92;;;9.02;;
71343;SDS011;59146;43.850;25.948;2022-08-19T07:36:37;17.85;;;7.38;;
71343;SDS011;59146;43.850;25.948;2022-08-19T07:39:10;15.32;;;8.70;;
71343;SDS011;59146;43.850;25.948;2022-08-19T07:41:37;9.15;;;6.72;;
71343;SDS011;59146;43.850;25.948;2022-08-19T07:44:04;10.30;;;6.70;;
71343;SDS011;59146;43.850;25.948;2022-08-19T07:46:36;10.73;;;6.57;;
71343;SDS011;59146;43.850;25.948;2022-08-19T07:49:03;11.23;;;6.95;;
71343;SDS011;59146;43.850;25.948;2022-08-19T07:51:29;14.55;;;7.20;;
71343;SDS011;59146;43.850;25.948;2022-08-19T07:53:55;12.43;;;6.53;;
71343;SDS011;59146;43.850;25.948;2022-08-19T07:56:21;10.27;;;6.78;;
71343;SDS011;59146;43.850;25.948;2022-08-19T07:58:47;13.30;;;6.90;;
71343;SDS011;59146;43.850;25.948;2022-08-19T08:01:16;12.32;;;6.70;;
71343;SDS011;59146;43.850;25.948;2022-08-19T08:03:43;14.57;;;7.47;;
71343;SDS011;59146;43.850;25.948;2022-08-19T08:06:28;7.47;;;6.55;;
71343;SDS011;59146;43.850;25.948;2022-08-19T08:09:12;7.38;;;6.65;;
71343;SDS011;59146;43.850;25.948;2022-08-19T08:11:53;9.13;;;6.70;;
71343;SDS011;59146;43.850;25.948;2022-08-19T08:14:27;13.85;;;6.72;;
71343;SDS011;59146;43.850;25.948;2022-08-19T08:16:57;10.32;;;6.53;;
71343;SDS011;59146;43.850;25.948;2022-08-19T08:19:25;12.00;;;6.88;;
71343;SDS011;59146;43.850;25.948;2022-08-19T08:21:55;17.27;;;7.25;;
71343;SDS011;59146;43.850;25.948;2022-08-19T08:24:22;12.90;;;7.35;;
71343;SDS011;59146;43.850;25.948;2022-08-19T08:26:49;18.77;;;6.85;;
71343;SDS011;59146;43.850;25.948;2022-08-19T08:29:14;16.70;;;7.05;;
71343;SDS011;59146;43.850;25.948;2022-08-19T08:31:41;10.02;;;7.43;;
71343;SDS011;59146;43.850;25.948;2022-08-19T08:34:09;12.52;;;7.53;;
71343;SDS011;59146;43.850;25.948;2022-08-19T08:36:36;17.17;;;7.57;;
71343;SDS011;59146;43.850;25.948;2022-08-19T08:39:07;15.02;;;7.47;;
71343;SDS011;59146;43.850;25.948;2022-08-19T08:47:18;14.98;;;7.72;;
71343;SDS011;59146;43.850;25.948;2022-08-19T08:52:31;15.52;;;7.55;;
71343;SDS011;59146;43.850;25.948;2022-08-19T08:55:03;14.15;;;8.10;;
71343;SDS011;59146;43.850;25.948;2022-08-19T08:57:52;13.38;;;7.57;;
71343;SDS011;59146;43.850;25.948;2022-08-19T09:00:40;14.00;;;7.63;;
71343;SDS011;59146;43.850;25.948;2022-08-19T09:03:10;10.43;;;7.80;;
71343;SDS011;59146;43.850;25.948;2022-08-19T09:11:09;19.27;;;8.07;;
71343;SDS011;59146;43.850;25.948;2022-08-19T09:16:56;14.80;;;8.52;;
71343;SDS011;59146;43.850;25.948;2022-08-19T09:19:23;16.23;;;7.38;;
71343;SDS011;59146;43.850;25.948;2022-08-19T09:21:48;23.00;;;8.13;;
71343;SDS011;59146;43.850;25.948;2022-08-19T09:24:15;16.40;;;7.57;;
71343;SDS011;59146;43.850;25.948;2022-08-19T09:26:40;14.88;;;7.35;;
71343;SDS011;59146;43.850;25.948;2022-08-19T09:29:07;9.82;;;6.65;;
71343;SDS011;59146;43.850;25.948;2022-08-19T09:31:33;19.08;;;7.28;;
71343;SDS011;59146;43.850;25.948;2022-08-19T09:33:59;11.95;;;7.45;;
71343;SDS011;59146;43.850;25.948;2022-08-19T09:36:26;15.85;;;7.35;;
71343;SDS011;59146;43.850;25.948;2022-08-19T09:38:57;18.63;;;7.68;;
71343;SDS011;59146;43.850;25.948;2022-08-19T09:41:24;19.90;;;7.57;;
71343;SDS011;59146;43.850;25.948;2022-08-19T09:43:50;20.33;;;7.43;;
71343;SDS011;59146;43.850;25.948;2022-08-19T09:46:17;13.73;;;7.43;;
71343;SDS011;59146;43.850;25.948;2022-08-19T09:48:48;13.55;;;7.53;;
71343;SDS011;59146;43.850;25.948;2022-08-19T09:53:49;12.65;;;7.03;;
71343;SDS011;59146;43.850;25.948;2022-08-19T09:56:17;14.32;;;7.10;;
71343;SDS011;59146;43.850;25.948;2022-08-19T09:58:43;10.63;;;7.43;;
71343;SDS011;59146;43.850;25.948;2022-08-19T10:01:14;15.40;;;7.28;;
71343;SDS011;59146;43.850;25.948;2022-08-19T10:03:41;15.65;;;7.20;;
71343;SDS011;59146;43.850;25.948;2022-08-19T10:06:06;11.45;;;8.50;;
71343;SDS011;59146;43.850;25.948;2022-08-19T10:08:35;15.57;;;7.78;;
71343;SDS011;59146;43.850;25.948;2022-08-19T10:11:01;17.58;;;7.00;;
71343;SDS011;59146;43.850;25.948;2022-08-19T10:13:29;13.85;;;7.53;;
71343;SDS011;59146;43.850;25.948;2022-08-19T10:16:01;10.43;;;7.22;;
71343;SDS011;59146;43.850;25.948;2022-08-19T10:18:32;13.45;;;7.85;;
71343;SDS011;59146;43.850;25.948;2022-08-19T10:21:03;16.63;;;7.18;;
71343;SDS011;59146;43.850;25.948;2022-08-19T10:23:33;14.45;;;6.80;;
71343;SDS011;59146;43.850;25.948;2022-08-19T10:26:01;9.05;;;6.55;;
71343;SDS011;59146;43.850;25.948;2022-08-19T10:28:28;9.38;;;6.68;;
71343;SDS011;59146;43.850;25.948;2022-08-19T10:30:54;19.25;;;6.82;;
71343;SDS011;59146;43.850;25.948;2022-08-19T10:33:19;17.10;;;7.05;;
71343;SDS011;59146;43.850;25.948;2022-08-19T10:35:45;14.07;;;7.78;;
71343;SDS011;59146;43.850;25.948;2022-08-19T10:38:11;8.75;;;6.95;;
71343;SDS011;59146;43.850;25.948;2022-08-19T10:40:37;15.93;;;7.53;;
71343;SDS011;59146;43.850;25.948;2022-08-19T10:43:02;14.88;;;7.03;;
71343;SDS011;59146;43.850;25.948;2022-08-19T10:45:28;17.83;;;7.35;;
71343;SDS011;59146;43.850;25.948;2022-08-19T10:47:53;11.18;;;6.95;;
71343;SDS011;59146;43.850;25.948;2022-08-19T10:50:19;11.43;;;7.65;;
71343;SDS011;59146;43.850;25.948;2022-08-19T10:53:04;13.45;;;7.10;;
71343;SDS011;59146;43.850;25.948;2022-08-19T10:55:33;16.00;;;6.90;;
71343;SDS011;59146;43.850;25.948;2022-08-19T10:58:19;21.00;;;7.88;;
71343;SDS011;59146;43.850;25.948;2022-08-19T11:00:54;9.50;;;6.80;;
71343;SDS011;59146;43.850;25.948;2022-08-19T11:03:22;11.18;;;7.93;;
71343;SDS011;59146;43.850;25.948;2022-08-19T11:06:02;11.38;;;7.85;;
71343;SDS011;59146;43.850;25.948;2022-08-19T11:08:30;11.00;;;7.05;;
71343;SDS011;59146;43.850;25.948;2022-08-19T11:10:57;13.82;;;6.95;;
71343;SDS011;59146;43.850;25.948;2022-08-19T11:15:59;15.55;;;6.85;;
71343;SDS011;59146;43.850;25.948;2022-08-19T11:18:27;20.60;;;7.57;;
71343;SDS011;59146;43.850;25.948;2022-08-19T11:20:52;12.00;;;6.55;;
71343;SDS011;59146;43.850;25.948;2022-08-19T11:23:18;10.98;;;6.82;;
71343;SDS011;59146;43.850;25.948;2022-08-19T11:25:43;14.55;;;7.07;;
71343;SDS011;59146;43.850;25.948;2022-08-19T11:28:10;11.23;;;7.53;;
71343;SDS011;59146;43.850;25.948;2022-08-19T11:30:37;10.90;;;7.65;;
71343;SDS011;59146;43.850;25.948;2022-08-19T11:33:03;14.48;;;6.80;;
71343;SDS011;59146;43.850;25.948;2022-08-19T11:35:28;11.20;;;7.88;;
71343;SDS011;59146;43.850;25.948;2022-08-19T11:37:53;15.68;;;8.05;;
71343;SDS011;59146;43.850;25.948;2022-08-19T11:40:20;10.35;;;7.55;;
71343;SDS011;59146;43.850;25.948;2022-08-19T11:42:46;17.60;;;7.65;;
71343;SDS011;59146;43.850;25.948;2022-08-19T11:45:20;9.90;;;7.78;;
71343;SDS011;59146;43.850;25.948;2022-08-19T11:47:46;14.95;;;7.03;;
71343;SDS011;59146;43.850;25.948;2022-08-19T11:50:12;13.43;;;6.97;;
71343;SDS011;59146;43.850;25.948;2022-08-19T11:52:38;10.63;;;7.18;;
71343;SDS011;59146;43.850;25.948;2022-08-19T11:55:03;13.95;;;7.40;;
71343;SDS011;59146;43.850;25.948;2022-08-19T11:57:30;12.38;;;7.10;;
71343;SDS011;59146;43.850;25.948;2022-08-19T11:59:55;10.82;;;6.95;;
71343;SDS011;59146;43.850;25.948;2022-08-19T12:02:21;12.98;;;6.93;;
71343;SDS011;59146;43.850;25.948;2022-08-19T12:04:48;12.75;;;6.90;;
71343;SDS011;59146;43.850;25.948;2022-08-19T12:07:13;11.55;;;6.60;;
71343;SDS011;59146;43.850;25.948;2022-08-19T12:09:39;12.00;;;7.50;;
71343;SDS011;59146;43.850;25.948;2022-08-19T12:12:05;10.15;;;7.28;;
71343;SDS011;59146;43.850;25.948;2022-08-19T12:14:30;13.70;;;7.80;;
71343;SDS011;59146;43.850;25.948;2022-08-19T12:16:57;7.78;;;6.90;;
71343;SDS011;59146;43.850;25.948;2022-08-19T12:19:22;15.65;;;7.20;;
71343;SDS011;59146;43.850;25.948;2022-08-19T12:21:49;11.30;;;6.90;;
71343;SDS011;59146;43.850;25.948;2022-08-19T12:24:16;15.50;;;6.90;;
71343;SDS011;59146;43.850;25.948;2022-08-19T12:26:47;9.85;;;6.72;;
71343;SDS011;59146;43.850;25.948;2022-08-19T12:29:13;11.70;;;6.25;;
71343;SDS011;59146;43.850;25.948;2022-08-19T12:31:39;12.93;;;6.72;;
71343;SDS011;59146;43.850;25.948;2022-08-19T12:34:05;8.13;;;6.03;;
71343;SDS011;59146;43.850;25.948;2022-08-19T12:36:30;10.82;;;6.90;;
71343;SDS011;59146;43.850;25.948;2022-08-19T12:38:57;15.73;;;7.35;;
71343;SDS011;59146;43.850;25.948;2022-08-19T12:41:24;15.50;;;7.05;;
71343;SDS011;59146;43.850;25.948;2022-08-19T12:43:50;14.75;;;6.60;;
71343;SDS011;59146;43.850;25.948;2022-08-19T12:46:17;13.85;;;6.50;;
71343;SDS011;59146;43.850;25.948;2022-08-19T12:48:43;9.75;;;6.22;;
71343;SDS011;59146;43.850;25.948;2022-08-19T12:51:11;7.82;;;6.47;;
71343;SDS011;59146;43.850;25.948;2022-08-19T12:53:38;13.48;;;6.20;;
71343;SDS011;59146;43.850;25.948;2022-08-19T12:56:05;17.27;;;6.70;;
71343;SDS011;59146;43.850;25.948;2022-08-19T12:58:31;11.00;;;6.43;;
71343;SDS011;59146;43.850;25.948;2022-08-19T13:00:59;10.93;;;7.03;;
71343;SDS011;59146;43.850;25.948;2022-08-19T13:03:25;14.18;;;6.78;;
71343;SDS011;59146;43.850;25.948;2022-08-19T13:05:54;10.80;;;6.80;;
71343;SDS011;59146;43.850;25.948;2022-08-19T13:08:20;13.90;;;6.88;;
71343;SDS011;59146;43.850;25.948;2022-08-19T13:10:46;15.32;;;6.53;;
71343;SDS011;59146;43.850;25.948;2022-08-19T13:13:11;9.85;;;6.88;;
71343;SDS011;59146;43.850;25.948;2022-08-19T13:15:39;11.93;;;6.57;;
71343;SDS011;59146;43.850;25.948;2022-08-19T13:18:06;10.83;;;6.60;;
71343;SDS011;59146;43.850;25.948;2022-08-19T13:20:34;9.20;;;6.78;;
71343;SDS011;59146;43.850;25.948;2022-08-19T13:23:00;12.43;;;6.28;;
71343;SDS011;59146;43.850;25.948;2022-08-19T13:25:25;11.85;;;7.03;;
71343;SDS011;59146;43.850;25.948;2022-08-19T13:27:51;13.45;;;6.93;;
71343;SDS011;59146;43.850;25.948;2022-08-19T13:30:18;10.25;;;6.32;;
71343;SDS011;59146;43.850;25.948;2022-08-19T13:33:04;11.25;;;7.03;;
71343;SDS011;59146;43.850;25.948;2022-08-19T13:35:36;12.02;;;7.00;;
71343;SDS011;59146;43.850;25.948;2022-08-19T13:38:02;17.10;;;6.30;;
71343;SDS011;59146;43.850;25.948;2022-08-19T13:40:30;13.02;;;6.82;;
71343;SDS011;59146;43.850;25.948;2022-08-19T13:42:59;12.18;;;6.63;;
71343;SDS011;59146;43.850;25.948;2022-08-19T13:45:26;8.82;;;6.22;;
71343;SDS011;59146;43.850;25.948;2022-08-19T13:47:54;11.45;;;6.45;;
71343;SDS011;59146;43.850;25.948;2022-08-19T13:50:25;9.90;;;6.30;;
71343;SDS011;59146;43.850;25.948;2022-08-19T13:52:53;9.02;;;6.20;;
71343;SDS011;59146;43.850;25.948;2022-08-19T13:55:20;12.57;;;5.57;;
71343;SDS011;59146;43.850;25.948;2022-08-19T13:57:46;7.88;;;5.28;;
71343;SDS011;59146;43.850;25.948;2022-08-19T14:00:16;9.70;;;5.55;;
71343;SDS011;59146;43.850;25.948;2022-08-19T14:02:43;13.65;;;7.13;;
71343;SDS011;59146;43.850;25.948;2022-08-19T14:05:10;10.80;;;6.63;;
71343;SDS011;59146;43.850;25.948;2022-08-19T14:07:37;11.90;;;6.35;;
71343;SDS011;59146;43.850;25.948;2022-08-19T14:10:03;10.65;;;5.78;;
71343;SDS011;59146;43.850;25.948;2022-08-19T14:12:31;9.60;;;5.82;;
71343;SDS011;59146;43.850;25.948;2022-08-19T14:14:57;16.23;;;6.40;;
71343;SDS011;59146;43.850;25.948;2022-08-19T14:17:24;15.57;;;6.03;;
71343;SDS011;59146;43.850;25.948;2022-08-19T14:19:50;23.25;;;6.30;;
71343;SDS011;59146;43.850;25.948;2022-08-19T14:22:21;11.63;;;6.43;;
71343;SDS011;59146;43.850;25.948;2022-08-19T14:24:46;11.88;;;5.85;;
71343;SDS011;59146;43.850;25.948;2022-08-19T14:27:12;9.50;;;6.30;;
71343;SDS011;59146;43.850;25.948;2022-08-19T14:29:38;7.97;;;6.30;;
71343;SDS011;59146;43.850;25.948;2022-08-19T14:32:03;13.48;;;6.22;;
71343;SDS011;59146;43.850;25.948;2022-08-19T14:34:29;15.20;;;6.50;;
71343;SDS011;59146;43.850;25.948;2022-08-19T14:36:56;17.35;;;5.80;;
71343;SDS011;59146;43.850;25.948;2022-08-19T14:39:22;10.50;;;6.43;;
71343;SDS011;59146;43.850;25.948;2022-08-19T14:41:47;13.70;;;6.82;;